LFBH/LRH METAR and TAF weather

Enter ICAO airport designator
Station Type Date Time Source
LFBH METAR 2020/12/06 00:30 UTC NOAA

LFBH 060030Z AUTO 27008KT 240V300 6000 RA VCTS BKN024/// BKN032/// BKN042/// ///CB 08/06 Q0995 TEMPO 4000 SHRA BECMG 32015G25KT


Station Type Date Time Source
LFBH Decoded METAR 2020/12/06 00:30 UTC NOAA

La Rochelle, France (LFBH) 46-09N 001-09W 10M
Dec 05, 2020 - 07:30 PM EST / 2020.12.06 0030 UTC
Wind: from the W (270 degrees) at 9 MPH (8 KT) (direction variable):0
Visibility: 3 mile(s):0
Sky conditions: mostly cloudy
Weather: rain; thunder in the vicinity; Cumulonimbus clouds observed
Temperature: 46 F (8 C)
Dew Point: 42 F (6 C)
Relative Humidity: 87%
Pressure (altimeter): 29.38 in. Hg (0995 hPa)
ob: LFBH 060030Z AUTO 27008KT 240V300 6000 RA VCTS BKN024/// BKN032/// BKN042/// ///CB 08/06 Q0995 TEMPO 4000 SHRA BECMG 32015G25KT
cycle: 0

Station Type Date Time Source
LFBH TAF 2020/12/05 23:30 UTC NOAA

TAF
AMD TAF
AMD LFBH 052328Z 0523/0618 29008KT 9999 BKN030
TEMPO 0523/0524 VRB15G25KT SHRA FEW025CB BKN030TCU
TEMPO 0600/0609 32015G25KT SHRA
BECMG 0609/0611 32015G25KT
TEMPO 0612/0618 -SHRA BKN030TCU

Example: see airport list